Time;durP1;ratioP1;P1;durP2;ratioP2;P2;SDS_P1;SDS_P2;PMS_P1;PMS_P2;Temp;Humidity;BMP_temperature;BMP_pressure;BME280_temperature;BME280_humidity;BME280_pressure;Samples;Min_cycle;Max_cycle;Signal;HPM_P1;HPM_P2
2022/04/22 00:02:11;;;;;;;15.33;10.53;;;9.60;99.90;;;;;;4957496;29;20190;-75
2022/04/22 00:04:38;;;;;;;17.13;10.53;;;9.60;99.90;;;;;;4957158;29;20194;-75
2022/04/22 00:07:06;;;;;;;15.20;9.90;;;9.60;99.90;;;;;;4958249;29;20190;-74
2022/04/22 00:09:32;;;;;;;16.07;10.33;;;9.60;99.90;;;;;;4957015;29;20190;-73
2022/04/22 00:11:59;;;;;;;18.60;10.27;;;9.50;99.90;;;;;;4957597;29;20204;-75
2022/04/22 00:14:26;;;;;;;15.17;9.43;;;9.40;99.90;;;;;;4957162;29;20304;-74
2022/04/22 00:16:53;;;;;;;17.90;9.90;;;9.40;99.90;;;;;;4958483;29;20640;-73
2022/04/22 00:19:20;;;;;;;16.87;9.63;;;9.40;99.90;;;;;;4956963;29;20210;-78
2022/04/22 00:21:47;;;;;;;14.63;9.33;;;9.40;99.90;;;;;;4956784;29;20210;-76
2022/04/22 00:24:16;;;;;;;16.83;9.57;;;9.30;99.90;;;;;;4956729;29;20233;-78
2022/04/22 00:26:43;;;;;;;15.37;8.80;;;9.30;99.90;;;;;;4956907;29;20209;-74
2022/04/22 00:29:11;;;;;;;14.10;8.90;;;9.30;99.90;;;;;;4956729;29;20202;-74
2022/04/22 00:31:38;;;;;;;15.33;8.67;;;9.30;99.90;;;;;;4956896;29;20240;-78
2022/04/22 00:34:06;;;;;;;16.10;8.90;;;9.20;99.90;;;;;;4956769;29;20204;-78
2022/04/22 00:36:34;;;;;;;16.37;8.93;;;9.30;99.90;;;;;;4961298;29;20756;-78
2022/04/22 00:39:05;;;;;;;13.53;8.30;;;9.20;99.90;;;;;;4958428;28;20209;-74
2022/04/22 00:41:32;;;;;;;15.73;8.83;;;9.20;99.90;;;;;;4963497;29;20205;-76
2022/04/22 00:44:00;;;;;;;14.90;8.77;;;9.30;99.90;;;;;;4965437;29;20304;-79
2022/04/22 00:46:28;;;;;;;12.17;8.20;;;9.20;99.90;;;;;;4961319;29;20256;-77
2022/04/22 00:48:55;;;;;;;13.57;8.33;;;9.20;99.90;;;;;;4940162;29;20239;-78
2022/04/22 00:51:22;;;;;;;13.33;8.50;;;9.20;99.90;;;;;;4957282;29;20227;-79
2022/04/22 00:53:52;;;;;;;13.00;8.37;;;9.20;99.90;;;;;;4957228;29;20225;-79
2022/04/22 00:56:20;;;;;;;14.47;8.60;;;9.10;99.90;;;;;;4956522;29;20233;-78
2022/04/22 00:58:49;;;;;;;14.97;8.47;;;9.10;99.90;;;;;;4956212;29;20673;-78
2022/04/22 01:01:17;;;;;;;12.47;8.60;;;9.10;99.90;;;;;;4955997;29;20241;-79
2022/04/22 01:10:08;;;;;;;13.13;7.97;;;9.10;99.90;;;;;;4959058;29;20198;-78
2022/04/22 01:12:09;;;;;;;14.47;8.73;;;9.00;99.90;;;;;;4949133;29;20209;-78
2022/04/22 01:14:37;;;;;;;15.30;9.00;;;9.00;99.90;;;;;;4955757;29;20203;-78
2022/04/22 01:17:05;;;;;;;13.13;8.60;;;9.00;99.90;;;;;;4955900;29;20648;-78
2022/04/22 01:19:32;;;;;;;13.97;8.97;;;9.00;99.90;;;;;;4955718;29;20205;-78
2022/04/22 01:21:59;;;;;;;14.50;9.20;;;9.00;99.90;;;;;;4957040;28;20554;-77
2022/04/22 01:24:27;;;;;;;18.57;9.43;;;8.90;99.90;;;;;;4955642;29;20198;-78
2022/04/22 01:26:55;;;;;;;14.70;9.80;;;8.90;99.90;;;;;;4955864;29;20213;-78
2022/04/22 01:29:22;;;;;;;13.30;9.17;;;8.90;99.90;;;;;;4955751;29;20202;-77
2022/04/22 01:31:49;;;;;;;14.57;9.10;;;8.90;99.90;;;;;;4955914;29;20202;-75
2022/04/22 01:34:16;;;;;;;13.73;8.47;;;8.90;99.90;;;;;;4955785;29;20274;-77
2022/04/22 01:36:43;;;;;;;12.03;8.97;;;8.90;99.90;;;;;;4956559;29;20269;-78
2022/04/22 01:39:10;;;;;;;13.57;9.10;;;8.90;99.90;;;;;;4955756;29;20213;-77
2022/04/22 01:41:37;;;;;;;17.03;9.87;;;8.80;99.90;;;;;;4955428;29;20210;-78
2022/04/22 01:44:04;;;;;;;15.20;10.00;;;8.80;99.90;;;;;;4956681;29;20552;-75
2022/04/22 01:46:31;;;;;;;15.73;10.60;;;8.80;99.90;;;;;;4955325;29;20208;-73
2022/04/22 01:48:58;;;;;;;16.90;9.97;;;8.80;99.90;;;;;;4955572;28;20208;-72
2022/04/22 01:51:25;;;;;;;14.13;9.53;;;8.80;99.90;;;;;;4955873;29;20280;-72
2022/04/22 01:53:52;;;;;;;14.13;8.30;;;8.80;99.90;;;;;;4954850;29;20202;-73
2022/04/22 01:56:19;;;;;;;12.33;8.73;;;8.80;99.90;;;;;;4954905;29;20581;-74
2022/04/22 01:58:46;;;;;;;11.97;7.97;;;8.80;99.90;;;;;;4955077;29;20194;-75
2022/04/22 02:01:13;;;;;;;12.90;8.77;;;8.70;99.90;;;;;;4956327;29;20618;-78
2022/04/22 02:03:40;;;;;;;13.03;8.37;;;8.70;99.90;;;;;;4954865;29;20659;-73
2022/04/22 02:06:06;;;;;;;12.63;8.83;;;8.70;99.90;;;;;;4954953;29;20217;-77
2022/04/22 02:08:36;;;;;;;13.87;8.40;;;8.70;99.90;;;;;;4955025;28;20213;-75
2022/04/22 02:11:03;;;;;;;11.80;7.83;;;8.70;99.90;;;;;;4954760;29;20293;-72
2022/04/22 02:13:36;;;;;;;11.00;8.37;;;8.70;99.90;;;;;;4938965;29;20648;-73
2022/04/22 02:16:05;;;;;;;10.97;7.67;;;8.70;99.90;;;;;;4954674;29;20253;-72
2022/04/22 02:18:36;;;;;;;14.40;8.30;;;8.60;99.90;;;;;;4954891;29;20208;-80
2022/04/22 02:21:11;;;;;;;11.90;8.13;;;8.60;99.90;;;;;;4958030;29;20737;-74
2022/04/22 02:23:40;;;;;;;13.10;8.30;;;8.60;99.90;;;;;;4958975;29;20205;-78
2022/04/22 02:26:09;;;;;;;13.90;8.20;;;8.60;99.90;;;;;;4959614;29;20216;-76
2022/04/22 02:28:38;;;;;;;10.47;7.70;;;8.60;99.90;;;;;;4961628;29;20206;-74
2022/04/22 02:31:07;;;;;;;11.77;7.53;;;8.60;99.90;;;;;;4957681;28;20205;-73
2022/04/22 02:33:36;;;;;;;12.40;7.90;;;8.50;99.90;;;;;;4954495;29;20205;-73
2022/04/22 02:36:04;;;;;;;7.27;5.30;;;8.50;99.90;;;;;;4955536;29;20217;-71
2022/04/22 02:38:32;;;;;;;8.50;5.17;;;8.40;99.90;;;;;;4954567;29;20217;-74
2022/04/22 02:46:31;;;;;;;6.77;4.73;;;8.40;99.90;;;;;;4954309;29;20212;-72
2022/04/22 02:48:59;;;;;;;6.27;4.13;;;8.30;99.90;;;;;;4954253;29;20655;-72
2022/04/22 02:51:27;;;;;;;5.77;4.70;;;8.30;99.90;;;;;;4973233;28;20232;-72
2022/04/22 02:53:56;;;;;;;4.90;4.00;;;8.30;99.90;;;;;;4972502;28;20231;-70
2022/04/22 02:56:23;;;;;;;5.07;3.83;;;8.30;99.90;;;;;;4969990;28;20317;-71
2022/04/22 02:58:52;;;;;;;5.50;4.00;;;8.30;99.90;;;;;;4953973;29;20201;-71
2022/04/22 03:01:19;;;;;;;5.33;3.60;;;8.30;99.90;;;;;;4953894;28;20244;-70
2022/04/22 03:03:46;;;;;;;4.60;3.50;;;8.30;99.90;;;;;;4955283;29;20197;-69
2022/04/22 03:06:13;;;;;;;3.83;3.10;;;8.30;99.90;;;;;;4953943;29;20209;-68
2022/04/22 03:08:40;;;;;;;5.97;3.30;;;8.30;99.90;;;;;;4953917;29;20721;-69
2022/04/22 03:11:07;;;;;;;3.27;2.67;;;8.30;99.90;;;;;;4953763;28;20216;-68
2022/04/22 03:13:34;;;;;;;4.10;3.13;;;8.30;99.90;;;;;;4955208;28;20274;-69
2022/04/22 03:16:04;;;;;;;4.20;3.00;;;8.30;99.90;;;;;;4953686;29;20221;-70
2022/04/22 03:18:31;;;;;;;3.80;2.70;;;8.30;99.90;;;;;;4954074;29;20223;-69
2022/04/22 03:20:58;;;;;;;3.27;2.80;;;8.30;99.90;;;;;;4954166;29;20198;-71
2022/04/22 03:23:25;;;;;;;4.20;2.77;;;8.30;99.90;;;;;;4953977;29;20206;-72
2022/04/22 03:25:54;;;;;;;3.20;2.50;;;8.30;99.90;;;;;;4953745;29;20236;-69
2022/04/22 03:28:22;;;;;;;4.27;2.60;;;8.20;99.90;;;;;;4953888;29;20200;-69
2022/04/22 03:30:50;;;;;;;3.43;2.67;;;8.20;99.90;;;;;;4953685;29;20292;-69
2022/04/22 03:33:18;;;;;;;2.63;2.27;;;8.30;99.90;;;;;;4953816;29;20205;-71
2022/04/22 03:35:50;;;;;;;3.03;2.30;;;8.30;99.90;;;;;;4953654;29;20557;-69
2022/04/22 03:38:21;;;;;;;3.93;2.50;;;8.20;99.90;;;;;;4953428;29;20201;-71
2022/04/22 03:40:49;;;;;;;3.10;2.70;;;8.30;99.90;;;;;;4953465;29;20232;-72
2022/04/22 03:43:16;;;;;;;3.60;2.83;;;8.30;99.90;;;;;;4953641;29;20248;-72
2022/04/22 03:45:44;;;;;;;4.47;3.27;;;8.30;99.90;;;;;;4953583;29;20226;-72
2022/04/22 03:48:13;;;;;;;3.63;2.50;;;8.30;99.90;;;;;;4969075;28;20559;-71
2022/04/22 03:50:40;;;;;;;2.87;2.40;;;8.40;99.90;;;;;;4972222;28;20236;-71
2022/04/22 03:53:14;;;;;;;2.90;2.57;;;8.30;99.90;;;;;;4972714;28;20566;-71
2022/04/22 03:55:42;;;;;;;2.67;2.20;;;8.30;99.90;;;;;;4972607;28;20213;-71
2022/04/22 03:58:10;;;;;;;2.87;2.43;;;8.30;99.90;;;;;;4972799;28;20278;-70
2022/04/22 04:00:42;;;;;;;3.70;2.77;;;8.30;99.90;;;;;;4972754;28;20235;-70
2022/04/22 04:03:23;;;;;;;5.20;2.90;;;8.30;99.90;;;;;;4973984;28;20197;-71
2022/04/22 04:05:51;;;;;;;3.10;2.53;;;8.30;99.90;;;;;;4972720;28;20201;-73
2022/04/22 04:08:20;;;;;;;4.07;2.60;;;8.20;99.90;;;;;;4974182;28;20193;-72
2022/04/22 04:16:19;;;;;;;3.50;2.80;;;8.20;99.90;;;;;;4976260;28;20223;-74
2022/04/22 04:18:46;;;;;;;4.80;2.80;;;8.20;99.90;;;;;;4976965;28;20203;-71
2022/04/22 04:24:02;;;;;;;4.50;3.10;;;8.10;99.90;;;;;;4975882;28;20240;-73
2022/04/22 04:26:29;;;;;;;3.50;3.10;;;8.10;99.90;;;;;;4976073;28;20210;-71
2022/04/22 04:28:56;;;;;;;3.87;3.17;;;8.20;99.90;;;;;;4976368;28;20211;-71
2022/04/22 04:31:23;;;;;;;4.70;3.53;;;8.10;99.90;;;;;;4976120;28;20646;-70
2022/04/22 04:33:49;;;;;;;4.17;3.50;;;8.10;99.90;;;;;;4975888;28;20653;-71
2022/04/22 04:36:16;;;;;;;4.83;3.53;;;8.10;99.90;;;;;;4975842;28;20326;-71
2022/04/22 04:38:44;;;;;;;5.70;4.27;;;8.10;99.90;;;;;;4976040;28;20264;-70
2022/04/22 04:41:13;;;;;;;5.53;4.00;;;8.00;99.90;;;;;;4976009;28;20292;-71
2022/04/22 04:43:40;;;;;;;7.20;4.70;;;8.00;99.90;;;;;;4975699;28;20317;-71
2022/04/22 04:46:08;;;;;;;5.67;4.07;;;8.00;99.90;;;;;;4977023;28;20249;-70
2022/04/22 04:48:36;;;;;;;5.70;4.17;;;8.10;99.90;;;;;;4975674;28;20202;-70
2022/04/22 04:51:03;;;;;;;6.83;5.00;;;8.00;99.90;;;;;;4976104;28;20225;-73
2022/04/22 04:53:30;;;;;;;7.63;5.20;;;8.10;99.90;;;;;;4975554;28;20655;-71
2022/04/22 04:55:57;;;;;;;6.93;5.10;;;8.10;99.90;;;;;;4975337;28;20697;-71
2022/04/22 04:58:24;;;;;;;8.73;5.63;;;8.10;99.90;;;;;;4975633;28;20208;-72
2022/04/22 05:00:51;;;;;;;7.60;5.33;;;8.10;99.90;;;;;;4975492;28;20584;-72
2022/04/22 05:03:19;;;;;;;7.70;5.67;;;8.10;99.90;;;;;;4975414;28;20208;-72
2022/04/22 05:05:47;;;;;;;6.93;5.20;;;8.10;99.90;;;;;;4980973;28;20271;-72
2022/04/22 05:08:16;;;;;;;8.27;6.00;;;8.20;99.90;;;;;;4997424;28;20201;-71
2022/04/22 05:10:45;;;;;;;9.13;6.47;;;8.20;99.90;;;;;;4978658;28;20204;-70
2022/04/22 05:13:12;;;;;;;9.20;6.27;;;8.30;99.90;;;;;;4974971;28;20200;-70
2022/04/22 05:15:39;;;;;;;9.03;6.33;;;8.40;99.90;;;;;;4976374;28;20223;-72
2022/04/22 05:18:06;;;;;;;9.77;7.27;;;8.40;99.90;;;;;;4975150;28;20197;-70
2022/04/22 05:20:33;;;;;;;10.13;7.47;;;8.50;99.90;;;;;;4975395;28;20227;-71
2022/04/22 05:23:01;;;;;;;11.33;7.70;;;8.60;99.90;;;;;;4975060;28;20201;-71
2022/04/22 05:25:28;;;;;;;11.83;7.60;;;8.60;99.90;;;;;;4972974;28;20213;-71
2022/04/22 05:27:55;;;;;;;10.53;7.13;;;8.60;99.90;;;;;;4959429;28;20215;-71
2022/04/22 05:33:07;;;;;;;12.37;8.77;;;8.80;99.90;;;;;;4974972;28;20670;-72
2022/04/22 05:35:34;;;;;;;11.00;7.90;;;8.70;99.90;;;;;;4974615;28;20215;-73
2022/04/22 05:38:06;;;;;;;12.83;8.67;;;8.80;99.90;;;;;;4974390;28;20233;-72
2022/04/22 05:40:36;;;;;;;13.07;8.43;;;8.80;99.90;;;;;;4974939;28;20650;-73
2022/04/22 05:43:07;;;;;;;15.10;9.83;;;8.80;99.90;;;;;;4975917;28;20707;-71
2022/04/22 05:45:35;;;;;;;12.07;8.70;;;8.80;99.90;;;;;;4974699;28;20228;-71
2022/04/22 05:48:02;;;;;;;13.47;9.03;;;8.80;99.90;;;;;;4990911;28;20603;-71
2022/04/22 05:50:29;;;;;;;14.63;8.93;;;8.80;99.90;;;;;;4974714;28;20215;-73
2022/04/22 05:52:56;;;;;;;12.60;9.33;;;8.80;99.90;;;;;;4974610;28;20225;-73
2022/04/22 05:55:25;;;;;;;14.20;9.17;;;8.90;99.90;;;;;;4975386;28;20205;-72
2022/04/22 05:57:53;;;;;;;14.20;9.07;;;8.90;99.90;;;;;;4990369;28;20250;-72
2022/04/22 06:00:23;;;;;;;14.47;9.77;;;9.00;99.90;;;;;;4958471;28;20702;-72
2022/04/22 06:02:52;;;;;;;14.43;9.30;;;9.00;99.90;;;;;;4974480;28;20205;-71
2022/04/22 06:05:21;;;;;;;12.43;8.20;;;9.10;99.90;;;;;;4975458;28;20209;-73
2022/04/22 06:10:31;;;;;;;12.20;8.37;;;9.00;99.90;;;;;;4974323;28;20620;-73
2022/04/22 06:10:36;;;;;;;12.50;8.30;;;9.10;99.90;;;;;;4975501;28;20590;-73
2022/04/22 06:13:04;;;;;;;10.67;8.00;;;9.20;99.90;;;;;;4975318;28;20192;-72
2022/04/22 06:15:31;;;;;;;9.90;7.90;;;9.30;99.90;;;;;;4973994;28;20223;-71
2022/04/22 06:18:02;;;;;;;10.00;7.73;;;9.30;99.90;;;;;;4973910;28;20316;-71
2022/04/22 06:20:30;;;;;;;10.00;7.40;;;9.40;99.90;;;;;;4978110;28;20561;-71
2022/04/22 06:23:00;;;;;;;9.33;7.50;;;9.50;99.90;;;;;;4982127;28;20556;-74
2022/04/22 06:25:30;;;;;;;8.33;6.80;;;9.50;99.90;;;;;;4980905;28;20289;-75
2022/04/22 06:27:59;;;;;;;9.43;7.20;;;9.50;99.90;;;;;;4947688;28;20249;-74
2022/04/22 06:30:27;;;;;;;9.50;7.37;;;9.50;99.90;;;;;;4975421;28;20654;-74
2022/04/22 06:32:55;;;;;;;8.70;6.60;;;9.60;99.90;;;;;;4973812;28;20194;-73
2022/04/22 06:35:22;;;;;;;7.97;6.33;;;9.70;99.90;;;;;;4973803;28;20201;-76
2022/04/22 06:37:52;;;;;;;8.13;6.57;;;9.70;99.90;;;;;;4973670;28;20236;-74
2022/04/22 06:45:53;;;;;;;8.00;6.37;;;9.90;99.90;;;;;;4973880;28;20229;-76
2022/04/22 06:48:21;;;;;;;8.73;7.03;;;10.00;99.90;;;;;;4973850;28;20647;-76
2022/04/22 06:51:08;;;;;;;9.47;6.30;;;10.00;99.90;;;;;;4973678;28;20201;-75
2022/04/22 06:53:36;;;;;;;7.90;6.07;;;10.10;99.90;;;;;;4973332;28;20643;-74
2022/04/22 06:56:06;;;;;;;7.30;5.97;;;10.30;99.90;;;;;;4973379;28;20200;-75
2022/04/22 06:58:37;;;;;;;6.90;5.87;;;10.40;99.90;;;;;;4973390;28;20207;-76
2022/04/22 07:01:05;;;;;;;7.20;5.70;;;10.50;99.90;;;;;;4972855;28;20233;-77
2022/04/22 07:03:52;;;;;;;9.43;5.80;;;10.70;99.90;;;;;;4972959;28;20198;-79
2022/04/22 07:06:19;;;;;;;6.33;4.93;;;10.70;99.90;;;;;;4973590;28;20271;-73
2022/04/22 07:08:47;;;;;;;6.07;4.80;;;10.70;99.90;;;;;;4973400;28;20252;-73
2022/04/22 07:11:27;;;;;;;6.53;5.07;;;10.60;99.90;;;;;;4988763;28;20285;-70
2022/04/22 07:13:59;;;;;;;5.83;4.87;;;10.50;99.90;;;;;;4974666;28;20197;-73
2022/04/22 07:16:27;;;;;;;6.10;5.03;;;10.50;99.90;;;;;;4973039;28;20201;-72
2022/04/22 07:18:56;;;;;;;7.17;5.10;;;10.40;99.90;;;;;;4973470;28;20718;-70
2022/04/22 07:21:25;;;;;;;7.63;4.97;;;10.50;99.90;;;;;;4974186;28;20209;-71
2022/04/22 07:23:53;;;;;;;6.80;5.20;;;10.50;99.90;;;;;;4990367;28;20202;-72
2022/04/22 07:26:21;;;;;;;7.03;5.10;;;10.50;99.90;;;;;;4972838;28;20233;-72
2022/04/22 07:28:50;;;;;;;6.77;5.37;;;10.50;99.90;;;;;;4973048;28;20365;-74
2022/04/22 07:31:20;;;;;;;7.10;5.40;;;10.60;99.90;;;;;;4972920;28;20300;-74
2022/04/22 07:33:49;;;;;;;6.73;5.43;;;10.70;99.90;;;;;;4974223;28;20595;-74
2022/04/22 07:36:16;;;;;;;7.47;5.80;;;10.80;99.90;;;;;;4972725;28;20671;-75
2022/04/22 07:38:44;;;;;;;7.87;5.03;;;10.70;99.90;;;;;;4988967;28;20205;-74
2022/04/22 07:41:14;;;;;;;7.87;6.03;;;10.70;99.90;;;;;;4972998;28;20201;-76
2022/04/22 07:46:48;;;;;;;8.77;6.60;;;10.80;99.90;;;;;;4979322;28;20202;-75
2022/04/22 07:49:17;;;;;;;7.87;6.13;;;10.80;99.90;;;;;;4982273;28;20208;-76
2022/04/22 07:51:47;;;;;;;7.77;5.93;;;10.90;99.90;;;;;;4983752;28;20193;-76
2022/04/22 07:54:16;;;;;;;6.67;5.57;;;11.00;99.90;;;;;;4982607;28;20209;-74
2022/04/22 07:56:45;;;;;;;8.17;5.93;;;11.10;99.90;;;;;;4982507;28;20225;-75
2022/04/22 07:59:14;;;;;;;7.17;5.60;;;11.10;99.90;;;;;;4983903;28;20211;-75
2022/04/22 08:01:41;;;;;;;8.20;5.97;;;11.20;99.90;;;;;;4962352;28;20260;-74
2022/04/22 08:04:11;;;;;;;8.07;5.93;;;11.20;99.90;;;;;;4976021;28;20205;-76
2022/04/22 08:06:38;;;;;;;9.87;5.87;;;11.20;99.90;;;;;;4976406;28;20202;-76
2022/04/22 08:09:05;;;;;;;6.90;5.53;;;11.20;99.90;;;;;;4976461;28;20224;-77
2022/04/22 08:11:34;;;;;;;7.57;5.77;;;11.20;99.90;;;;;;4975952;28;20300;-76
2022/04/22 08:14:01;;;;;;;6.87;5.60;;;11.70;99.90;;;;;;4976330;28;20241;-75
2022/04/22 08:16:27;;;;;;;7.83;5.37;;;11.90;99.90;;;;;;4976107;28;20193;-75
2022/04/22 08:18:54;;;;;;;7.60;5.70;;;12.70;99.90;;;;;;4977419;28;20248;-75
2022/04/22 08:21:32;;;;;;;6.63;5.10;;;13.80;99.90;;;;;;4976398;28;20229;-75
2022/04/22 08:24:02;;;;;;;7.53;5.47;;;13.70;99.90;;;;;;4975936;28;20193;-75
2022/04/22 08:26:32;;;;;;;6.67;5.33;;;13.20;99.90;;;;;;4975934;28;20198;-75
2022/04/22 08:28:58;;;;;;;6.17;4.93;;;13.60;99.90;;;;;;4977180;28;20209;-77
2022/04/22 08:31:25;;;;;;;7.03;4.97;;;14.40;99.90;;;;;;4976180;28;21401;-76
2022/04/22 08:33:55;;;;;;;6.70;5.00;;;14.60;99.90;;;;;;4975819;28;20295;-74
2022/04/22 08:36:27;;;;;;;6.20;4.77;;;14.90;99.90;;;;;;4975720;28;20199;-77
2022/04/22 08:38:55;;;;;;;5.80;5.00;;;15.50;99.90;;;;;;4975918;28;20228;-73
2022/04/22 08:41:23;;;;;;;7.67;5.03;;;16.20;99.90;;;;;;4975992;28;20213;-80
2022/04/22 08:43:58;;;;;;;5.43;4.77;;;16.80;99.90;;;;;;4975909;28;20214;-76
2022/04/22 08:52:03;;;;;;;7.03;4.87;;;16.80;99.90;;;;;;4975625;28;20201;-76
2022/04/22 08:54:35;;;;;;;5.97;4.40;;;16.70;99.90;;;;;;4975590;28;20360;-78
2022/04/22 08:57:03;;;;;;;5.37;4.70;;;16.70;99.90;;;;;;4976681;28;20223;-80
2022/04/22 08:59:30;;;;;;;5.50;4.33;;;16.20;99.90;;;;;;4976724;28;20240;-81
2022/04/22 09:01:58;;;;;;;5.80;4.60;;;15.70;99.90;;;;;;4977155;28;20272;-79
2022/04/22 09:04:28;;;;;;;6.47;4.90;;;15.00;99.90;;;;;;4977213;28;20212;-75
2022/04/22 09:06:57;;;;;;;5.00;4.50;;;15.10;99.90;;;;;;4977794;28;20578;-76
2022/04/22 09:09:25;;;;;;;6.70;4.70;;;15.90;99.90;;;;;;4978009;28;20228;-77
2022/04/22 09:12:13;;;;;;;5.50;4.70;;;16.10;99.90;;;;;;4977514;28;20204;-82
2022/04/22 09:14:49;;;;;;;4.60;4.17;;;15.90;99.90;;;;;;4979607;28;20628;-83
2022/04/22 09:17:28;;;;;;;5.37;4.70;;;15.60;99.90;;;;;;4904825;29;20230;-81
2022/04/22 09:20:02;;;;;;;5.47;4.40;;;15.30;99.90;;;;;;4918502;29;20762;-80
2022/04/22 09:22:34;;;;;;;4.83;4.30;;;14.90;99.90;;;;;;4920945;29;20198;-78
2022/04/22 09:25:05;;;;;;;4.90;4.40;;;14.50;99.90;;;;;;4921337;29;20203;-75
2022/04/22 09:27:42;;;;;;;5.77;4.83;;;14.10;99.90;;;;;;4917589;29;20226;-84
2022/04/22 09:30:14;;;;;;;5.33;4.17;;;14.10;99.90;;;;;;4905208;29;20571;-79
2022/04/22 09:32:45;;;;;;;5.10;4.60;;;13.80;99.90;;;;;;4905562;29;20300;-84
2022/04/22 09:35:20;;;;;;;5.17;4.40;;;13.80;99.90;;;;;;4919951;29;20244;-79
2022/04/22 09:43:45;;;;;;;5.00;4.00;;;14.40;99.90;;;;;;4997322;28;20232;-82
2022/04/22 09:46:35;;;;;;;5.80;4.50;;;14.20;99.90;;;;;;4980952;28;20203;-84
2022/04/22 09:49:02;;;;;;;6.80;4.30;;;14.30;99.90;;;;;;5131305;23;20245;-81
2022/04/22 09:51:30;;;;;;;4.93;4.33;;;14.90;99.90;;;;;;4957312;28;20244;-79
2022/04/22 09:54:06;;;;;;;4.87;4.20;;;15.00;99.90;;;;;;4973704;28;20194;-75
2022/04/22 09:56:34;;;;;;;5.50;4.10;;;15.10;99.90;;;;;;4973832;28;20633;-85
2022/04/22 09:59:22;;;;;;;4.73;4.10;;;15.60;99.90;;;;;;4973738;28;20228;-75
2022/04/22 10:01:50;;;;;;;5.23;4.40;;;15.90;99.90;;;;;;4974192;28;20230;-77
2022/04/22 10:04:28;;;;;;;4.87;4.10;;;16.10;98.40;;;;;;4973159;28;20220;-73
2022/04/22 10:06:59;;;;;;;4.13;3.73;;;16.00;97.30;;;;;;4974747;28;20686;-75
2022/04/22 10:09:28;;;;;;;5.13;4.20;;;15.80;97.20;;;;;;4973605;28;20201;-74
2022/04/22 10:11:58;;;;;;;5.07;4.23;;;15.70;97.70;;;;;;4988815;28;20207;-80
2022/04/22 10:14:38;;;;;;;4.80;3.90;;;16.00;98.20;;;;;;4981494;28;20197;-79
2022/04/22 10:17:06;;;;;;;4.70;4.03;;;16.30;96.00;;;;;;4991232;28;20207;-82
2022/04/22 10:19:42;;;;;;;4.43;3.90;;;16.70;95.70;;;;;;4991582;28;20200;-78
2022/04/22 10:22:15;;;;;;;4.70;4.00;;;16.70;94.10;;;;;;4992139;28;20200;-80
2022/04/22 10:24:42;;;;;;;4.77;3.87;;;16.50;93.00;;;;;;4993586;28;20200;-79
2022/04/22 10:27:10;;;;;;;4.93;3.90;;;16.40;93.50;;;;;;4992211;28;20197;-79
2022/04/22 10:29:40;;;;;;;5.43;3.80;;;15.90;92.10;;;;;;4976088;28;20200;-79
2022/04/22 10:32:11;;;;;;;4.77;3.83;;;15.60;92.10;;;;;;4991858;28;20197;-80
2022/04/22 10:34:39;;;;;;;5.60;3.80;;;15.20;93.30;;;;;;4992172;28;20205;-78
2022/04/22 10:37:25;;;;;;;4.60;3.80;;;15.10;94.80;;;;;;4991721;28;20268;-81
2022/04/22 10:39:56;;;;;;;5.10;3.67;;;14.80;94.70;;;;;;4992445;28;20197;-76
2022/04/22 10:42:37;;;;;;;3.97;3.57;;;14.60;96.20;;;;;;4992685;28;20299;-85
2022/04/22 10:47:53;;;;;;;4.13;3.73;;;14.90;97.20;;;;;;4953627;29;20198;-81
2022/04/22 10:50:31;;;;;;;4.10;3.60;;;14.90;96.90;;;;;;4937376;29;20744;-86
2022/04/22 10:53:23;;;;;;;4.07;3.53;;;14.90;96.40;;;;;;4954502;29;20268;-81
2022/04/22 10:55:50;;;;;;;4.87;3.77;;;14.90;97.30;;;;;;4954965;28;20209;-78
2022/04/22 10:58:37;;;;;;;3.93;3.27;;;15.10;96.20;;;;;;4955316;28;20301;-81
2022/04/22 11:01:04;;;;;;;4.47;3.50;;;14.90;95.60;;;;;;4938414;29;20198;-84
2022/04/22 11:03:34;;;;;;;4.40;3.80;;;14.60;96.30;;;;;;4953873;29;20309;-84
2022/04/22 11:06:05;;;;;;;5.47;4.00;;;14.50;96.80;;;;;;4953826;29;20229;-85
2022/04/22 11:08:41;;;;;;;5.17;4.00;;;14.40;98.10;;;;;;4953030;29;20224;-81
2022/04/22 11:11:15;;;;;;;5.70;3.80;;;14.30;98.30;;;;;;4955990;29;20229;-79
2022/04/22 11:13:45;;;;;;;6.20;3.80;;;14.20;98.40;;;;;;4961147;28;20245;-86
2022/04/22 11:16:22;;;;;;;4.40;3.60;;;14.40;99.10;;;;;;4973684;28;20196;-84
2022/04/22 11:19:22;;;;;;;5.43;3.47;;;14.60;98.90;;;;;;4973343;28;20595;-83
2022/04/22 11:21:57;;;;;;;4.17;3.33;;;14.60;97.60;;;;;;4972831;28;20620;-80
2022/04/22 11:24:31;;;;;;;3.90;3.47;;;14.60;97.80;;;;;;4977371;28;20319;-81
2022/04/22 11:27:05;;;;;;;4.67;3.80;;;14.60;97.30;;;;;;4975941;28;20193;-83
2022/04/22 11:29:32;;;;;;;4.47;3.37;;;14.50;98.20;;;;;;4975829;28;20193;-77
2022/04/22 11:32:09;;;;;;;4.10;3.50;;;14.50;97.40;;;;;;4976105;28;20201;-82
2022/04/22 11:34:50;;;;;;;4.70;3.73;;;14.50;97.90;;;;;;4975698;28;20642;-82
2022/04/22 11:37:19;;;;;;;4.27;3.63;;;14.40;98.30;;;;;;4977003;28;20542;-82
2022/04/22 11:39:49;;;;;;;5.23;3.83;;;14.20;97.90;;;;;;4975989;28;20192;-79
2022/04/22 11:42:17;;;;;;;4.63;3.53;;;14.00;99.70;;;;;;4976036;28;20225;-83
2022/04/22 11:45:04;;;;;;;4.80;3.90;;;14.00;99.90;;;;;;4975196;28;20288;-79
2022/04/22 11:47:31;;;;;;;4.67;3.57;;;13.80;99.90;;;;;;4975924;28;20200;-83
2022/04/22 11:49:59;;;;;;;4.13;3.67;;;13.70;99.90;;;;;;4975121;28;20672;-83
2022/04/22 11:52:28;;;;;;;5.23;3.80;;;13.60;99.90;;;;;;4975616;28;20216;-83
2022/04/22 11:55:05;;;;;;;4.93;3.70;;;13.80;99.90;;;;;;4975620;28;20201;-77
2022/04/22 11:57:39;;;;;;;4.90;3.77;;;14.20;99.90;;;;;;4975476;28;20244;-78
2022/04/22 12:05:50;;;;;;;5.13;4.17;;;14.70;98.80;;;;;;4975184;28;20215;-75
2022/04/22 12:08:18;;;;;;;4.70;4.23;;;14.50;99.30;;;;;;4975205;28;20197;-75
2022/04/22 12:10:47;;;;;;;4.87;4.37;;;14.30;99.90;;;;;;4959594;28;20264;-74
2022/04/22 12:13:16;;;;;;;6.70;4.43;;;14.20;99.90;;;;;;4974796;28;20293;-78
2022/04/22 12:15:46;;;;;;;6.07;4.40;;;14.20;99.90;;;;;;4975279;28;20624;-77
2022/04/22 12:18:30;;;;;;;5.53;4.20;;;14.10;99.90;;;;;;4975356;28;20224;-81
2022/04/22 12:20:58;;;;;;;5.73;4.60;;;14.00;99.90;;;;;;4974679;28;20616;-82
2022/04/22 12:23:39;;;;;;;6.03;4.87;;;14.00;99.90;;;;;;4976903;28;20204;-83
2022/04/22 12:26:17;;;;;;;5.73;4.50;;;14.10;99.90;;;;;;4975187;28;20256;-82
2022/04/22 12:29:08;;;;;;;5.40;4.60;;;14.30;99.90;;;;;;4976223;28;20581;-82
2022/04/22 12:31:41;;;;;;;5.50;4.50;;;14.30;99.90;;;;;;4974910;28;20193;-83
2022/04/22 12:34:10;;;;;;;7.60;4.90;;;14.40;99.90;;;;;;4975405;28;20636;-77
2022/04/22 12:36:59;;;;;;;5.00;4.50;;;14.20;99.90;;;;;;4980562;28;20300;-76
2022/04/22 12:39:49;;;;;;;6.00;4.10;;;13.90;99.90;;;;;;4976513;28;20276;-75
2022/04/22 12:42:18;;;;;;;5.57;4.40;;;13.60;99.90;;;;;;4976633;28;20209;-77
2022/04/22 12:53:51;;;;;;;6.40;4.77;;;12.90;99.90;;;;;;4974154;28;20726;-81
2022/04/22 12:56:24;;;;;;;7.53;4.93;;;12.70;99.90;;;;;;4974595;28;20217;-84
2022/04/22 12:58:59;;;;;;;6.37;5.20;;;12.60;99.90;;;;;;4975463;28;20584;-82
2022/04/22 13:01:29;;;;;;;7.73;5.50;;;12.60;99.90;;;;;;4990914;28;20193;-86
2022/04/22 13:04:00;;;;;;;8.83;5.83;;;12.40;99.90;;;;;;4975480;28;20547;-82
2022/04/22 13:06:43;;;;;;;5.87;4.53;;;12.30;99.90;;;;;;4975120;28;20189;-82
2022/04/22 13:09:11;;;;;;;6.60;5.17;;;12.30;99.90;;;;;;4974056;28;20201;-83
2022/04/22 13:11:39;;;;;;;6.10;4.83;;;12.20;99.90;;;;;;4973987;28;20194;-82
2022/04/22 13:14:07;;;;;;;8.17;5.53;;;12.10;99.90;;;;;;4973956;28;20216;-81
2022/04/22 13:16:35;;;;;;;7.57;5.23;;;12.10;99.90;;;;;;4973857;28;20197;-82
2022/04/22 13:19:11;;;;;;;7.23;5.50;;;12.10;99.90;;;;;;4973551;28;20312;-80
2022/04/22 13:21:39;;;;;;;6.97;5.20;;;11.90;99.90;;;;;;4974119;28;20198;-79
2022/04/22 13:24:06;;;;;;;8.00;5.43;;;12.00;99.90;;;;;;4973738;28;20197;-77
2022/04/22 13:26:33;;;;;;;6.47;4.93;;;12.20;99.90;;;;;;4973942;28;20292;-82
2022/04/22 13:29:02;;;;;;;6.83;5.13;;;12.30;99.90;;;;;;4975009;28;20213;-82
2022/04/22 13:31:29;;;;;;;7.20;5.17;;;12.40;99.90;;;;;;4990162;28;20205;-82
2022/04/22 13:33:56;;;;;;;6.30;5.17;;;12.40;99.90;;;;;;4975293;28;20202;-81
2022/04/22 13:36:23;;;;;;;5.57;4.67;;;12.40;99.90;;;;;;4973782;28;20200;-81
2022/04/22 13:38:50;;;;;;;7.63;5.00;;;12.40;99.90;;;;;;4973740;28;20217;-77
2022/04/22 13:41:16;;;;;;;6.63;4.70;;;12.20;99.90;;;;;;4973426;28;20600;-84
2022/04/22 13:43:43;;;;;;;5.63;4.60;;;12.20;99.90;;;;;;4973817;28;20194;-83
2022/04/22 13:54:26;;;;;;;7.00;4.40;;;11.90;99.90;;;;;;4973256;28;20647;-85
2022/04/22 13:56:53;;;;;;;7.87;4.67;;;11.90;99.90;;;;;;4989774;28;20236;-86
2022/04/22 13:59:21;;;;;;;6.87;4.27;;;11.90;99.90;;;;;;4958942;28;20224;-86
2022/04/22 14:01:47;;;;;;;6.70;4.20;;;12.00;99.90;;;;;;4972945;28;20216;-85
2022/04/22 14:04:14;;;;;;;6.00;4.00;;;12.00;99.90;;;;;;4973283;28;20212;-85
2022/04/22 14:06:42;;;;;;;5.77;4.17;;;12.00;99.90;;;;;;4973026;28;20206;-84
2022/04/22 14:09:09;;;;;;;7.10;4.60;;;12.10;99.90;;;;;;4974649;28;20219;-83
2022/04/22 14:11:36;;;;;;;5.30;4.30;;;12.10;99.90;;;;;;4973032;28;20259;-86